Spirit — WDD6522 — position and weather

sailwx.info

Track history (hours):
 
Tides and Currents Weather Stations Pressure Air Temp Water Temp Dewpoint Dewpoint Depression Visibility Wind Speed Wind Dir Waves Ship Positions

Spirit

Owner: Nitzsche, Christian, Greenwich, CT. More information available from US FCC via Universal Licensing System and Coast Guard Vessel Documentation Center.

Last reported at 2015-Aug-27 12:31 UTC. Time now 2015-Aug-31 08:49 UTC.
Position N 41°12' W 071°35'.

Length 13 m.

Type: Sailing vessel. MMSI: 367173990.

Date/timePositionNaut miles runAvg speedWind from/ knotsBaromVisibWave heightAir tempDewpointWater temp
2015-Aug-27 12:31N 41°12' W 071°35'0 0.0
2015-Aug-26 21:33N 41°12' W 071°35'5 5.5
2015-Aug-26 20:33N 41°14' W 071°41'6 5.7
2015-Aug-26 19:33N 41°16' W 071°48'6 5.5
2015-Aug-26 18:33N 41°19' W 071°55'2 0.1
2015-Aug-25 21:34N 41°19' W 071°52'2 2.4
2015-Aug-25 20:33N 41°20' W 071°55'4 4.1
2015-Aug-25 19:33N 41°17' W 071°58'2 0.8
2015-Aug-25 17:23N 41°16' W 072°00'0 0.1
2015-Aug-25 16:34N 41°16' W 072°00'7 6.9
2015-Aug-25 15:33N 41°15' W 072°09'8 7.7
2015-Aug-25 14:33N 41°15' W 072°20'7 6.7
2015-Aug-25 13:31N 41°16' W 072°29'0 0.0
2015-Aug-25 06:31N 41°16' W 072°29'4 4.4
2015-Aug-25 05:33N 41°13' W 072°33'7 7.3
2015-Aug-25 04:32N 41°10' W 072°43'8 8.0
2015-Aug-25 03:29N 41°08' W 072°53'17 7.5
2015-Aug-25 01:11N 41°04' W 073°15'5 7.6
2015-Aug-25 00:33N 41°02' W 073°21'  
2015-Aug-22 17:26N 40°54' W 073°31'6 6.3
2015-Aug-22 16:33N 40°59' W 073°32'  
2015-Aug-17 18:12N 40°59' W 073°30'4 6.8
2015-Aug-17 17:33N 40°56' W 073°26'2 0.4
2015-Aug-17 12:33N 40°54' W 073°26'  
Track history (hours):
 
Tides and Currents Weather Stations Pressure Air Temp Water Temp Dewpoint Dewpoint Depression Visibility Wind Speed Wind Dir Waves Ship Positions

Spirit

Owner: Nitzsche, Christian, Greenwich, CT. More information available from US FCC via Universal Licensing System and Coast Guard Vessel Documentation Center.

Last reported at 2015-Aug-27 12:31 UTC. Time now 2015-Aug-31 08:49 UTC.
Position N 41°12' W 071°35'.

Length 13 m.

Type: Sailing vessel. MMSI: 367173990.

Date/timePositionNaut miles runAvg speedWind from/ knotsBaromVisibWave heightAir tempDewpointWater temp
2015-Aug-27 12:31N 41°12' W 071°35'0 0.0
2015-Aug-26 21:33N 41°12' W 071°35'5 5.5
2015-Aug-26 20:33N 41°14' W 071°41'6 5.7
2015-Aug-26 19:33N 41°16' W 071°48'6 5.5
2015-Aug-26 18:33N 41°19' W 071°55'2 0.1
2015-Aug-25 21:34N 41°19' W 071°52'2 2.4
2015-Aug-25 20:33N 41°20' W 071°55'4 4.1
2015-Aug-25 19:33N 41°17' W 071°58'2 0.8
2015-Aug-25 17:23N 41°16' W 072°00'0 0.1
2015-Aug-25 16:34N 41°16' W 072°00'7 6.9
2015-Aug-25 15:33N 41°15' W 072°09'8 7.7
2015-Aug-25 14:33N 41°15' W 072°20'7 6.7
2015-Aug-25 13:31N 41°16' W 072°29'0 0.0
2015-Aug-25 06:31N 41°16' W 072°29'4 4.4
2015-Aug-25 05:33N 41°13' W 072°33'7 7.3
2015-Aug-25 04:32N 41°10' W 072°43'8 8.0
2015-Aug-25 03:29N 41°08' W 072°53'17 7.5
2015-Aug-25 01:11N 41°04' W 073°15'5 7.6
2015-Aug-25 00:33N 41°02' W 073°21'  
2015-Aug-22 17:26N 40°54' W 073°31'6 6.3
2015-Aug-22 16:33N 40°59' W 073°32'  
2015-Aug-17 18:12N 40°59' W 073°30'4 6.8
2015-Aug-17 17:33N 40°56' W 073°26'2 0.4
2015-Aug-17 12:33N 40°54' W 073°26'  

Dump ship's entire track history